createdAt,value
2023-04-21T00:00:14.191Z,9.57
2023-04-21T00:02:41.523Z,9.07
2023-04-21T00:05:13.973Z,8.20
2023-04-21T00:07:41.679Z,8.90
2023-04-21T00:10:09.616Z,8.37
2023-04-21T00:12:36.388Z,8.40
2023-04-21T00:15:03.593Z,8.90
2023-04-21T00:17:30.064Z,8.43
2023-04-21T00:19:56.708Z,8.53
2023-04-21T00:22:23.230Z,7.93
2023-04-21T00:24:49.728Z,8.00
2023-04-21T00:27:16.583Z,8.50
2023-04-21T00:29:43.055Z,8.10
2023-04-21T00:32:10.199Z,7.90
2023-04-21T00:34:36.931Z,7.63
2023-04-21T00:37:03.472Z,8.37
2023-04-21T00:39:29.951Z,7.03
2023-04-21T00:41:57.388Z,7.30
2023-04-21T00:44:23.904Z,7.30
2023-04-21T00:46:50.469Z,7.50
2023-04-21T00:49:17.262Z,7.60
2023-04-21T00:51:43.934Z,6.93
2023-04-21T00:54:10.991Z,6.90
2023-04-21T00:56:37.503Z,7.13
2023-04-21T00:59:04.190Z,7.70
2023-04-21T01:01:36.709Z,6.83
2023-04-21T01:04:04.888Z,6.83
2023-04-21T01:06:32.400Z,7.43
2023-04-21T01:08:58.986Z,7.27
2023-04-21T01:11:26.332Z,7.50
2023-04-21T01:13:54.608Z,6.90
2023-04-21T01:16:23.124Z,7.10
2023-04-21T01:18:56.237Z,6.50
2023-04-21T01:21:23.734Z,7.23
2023-04-21T01:23:50.353Z,7.33
2023-04-21T01:26:21.748Z,6.73
2023-04-21T01:28:48.921Z,7.07
2023-04-21T01:31:16.479Z,6.73
2023-04-21T01:33:43.178Z,6.50
2023-04-21T01:36:10.230Z,6.50
2023-04-21T01:38:41.081Z,6.30
2023-04-21T01:41:08.350Z,6.50
2023-04-21T01:43:35.607Z,6.77
2023-04-21T01:46:02.202Z,6.43
2023-04-21T01:48:28.881Z,6.17
2023-04-21T01:50:55.360Z,6.10
2023-04-21T01:53:21.889Z,6.03
2023-04-21T01:55:48.416Z,6.07
2023-04-21T01:58:14.994Z,6.00
2023-04-21T02:00:41.454Z,7.17
2023-04-21T02:03:08.029Z,6.50
2023-04-21T02:05:34.678Z,6.90
2023-04-21T02:08:01.236Z,6.57
2023-04-21T02:10:27.777Z,6.30
2023-04-21T02:12:54.275Z,6.37
2023-04-21T02:15:20.809Z,6.80
2023-04-21T02:17:47.422Z,6.83
2023-04-21T02:20:13.960Z,6.70
2023-04-21T02:22:40.778Z,6.90
2023-04-21T02:25:07.611Z,6.87
2023-04-21T02:27:34.153Z,6.60
2023-04-21T02:30:01.017Z,6.60
2023-04-21T02:32:28.137Z,7.07
2023-04-21T02:34:54.961Z,6.67
2023-04-21T02:37:21.566Z,6.73
2023-04-21T02:39:48.108Z,6.80
2023-04-21T02:42:14.569Z,6.63
2023-04-21T02:44:41.060Z,6.30
2023-04-21T02:47:07.505Z,6.73
2023-04-21T02:49:33.967Z,6.60
2023-04-21T02:52:00.435Z,6.70
2023-04-21T02:54:26.980Z,6.50
2023-04-21T02:56:53.455Z,6.73
2023-04-21T02:59:20.470Z,6.70
2023-04-21T03:01:49.187Z,7.50
2023-04-21T03:04:15.809Z,7.07
2023-04-21T03:06:42.396Z,6.80
2023-04-21T03:09:09.183Z,6.73
2023-04-21T03:11:36.088Z,6.93
2023-04-21T03:14:02.739Z,7.40
2023-04-21T03:16:29.584Z,7.07
2023-04-21T03:18:56.224Z,7.00
2023-04-21T03:21:22.687Z,6.53
2023-04-21T03:23:49.168Z,7.43
2023-04-21T03:26:16.458Z,7.37
2023-04-21T03:28:42.986Z,6.87
2023-04-21T03:31:09.498Z,6.47
2023-04-21T03:33:36.125Z,6.40
2023-04-21T03:36:03.158Z,7.03
2023-04-21T03:38:30.064Z,6.73
2023-04-21T03:40:56.538Z,6.67
2023-04-21T03:43:23.105Z,6.87
2023-04-21T03:45:49.586Z,7.00
2023-04-21T03:48:16.095Z,6.27
2023-04-21T03:50:42.539Z,7.07
2023-04-21T03:53:09.018Z,6.40
2023-04-21T03:55:35.684Z,6.33
2023-04-21T03:58:02.224Z,5.87
2023-04-21T04:00:28.671Z,6.13
2023-04-21T04:02:55.494Z,6.57
2023-04-21T04:05:22.149Z,7.00
2023-04-21T04:07:48.640Z,5.77
2023-04-21T04:10:15.107Z,5.83
2023-04-21T04:12:41.602Z,5.70
2023-04-21T04:15:08.406Z,6.63
2023-04-21T04:17:34.874Z,6.60
2023-04-21T04:20:01.900Z,6.10
2023-04-21T04:22:28.404Z,5.40
2023-04-21T04:24:55.318Z,6.40
2023-04-21T04:27:21.738Z,5.70
2023-04-21T04:29:49.350Z,5.77
2023-04-21T04:32:15.904Z,5.70
2023-04-21T04:34:42.469Z,6.13
2023-04-21T04:37:11.154Z,5.53
2023-04-21T04:39:37.635Z,5.70
2023-04-21T04:42:08.822Z,5.97
2023-04-21T04:44:35.696Z,5.47
2023-04-21T04:47:02.270Z,5.97
2023-04-21T04:49:28.797Z,5.50
2023-04-21T04:51:55.338Z,5.50
2023-04-21T04:54:22.015Z,6.27
2023-04-21T04:56:48.657Z,5.03
2023-04-21T04:59:15.810Z,5.80
2023-04-21T05:01:42.441Z,4.97
2023-04-21T05:04:09.172Z,5.30
2023-04-21T05:06:35.805Z,5.60
2023-04-21T05:09:02.355Z,5.67
2023-04-21T05:11:28.808Z,5.47
2023-04-21T05:13:55.669Z,5.80
2023-04-21T05:16:22.136Z,4.50
2023-04-21T05:18:51.063Z,5.20
2023-04-21T05:21:24.081Z,4.70
2023-04-21T05:23:50.919Z,5.07
2023-04-21T05:26:17.356Z,4.47
2023-04-21T05:28:43.822Z,5.13
2023-04-21T05:31:10.275Z,4.33
2023-04-21T05:33:36.741Z,4.87
2023-04-21T05:36:07.220Z,4.60
2023-04-21T05:38:33.705Z,4.93
2023-04-21T05:41:00.313Z,5.10
2023-04-21T05:43:26.884Z,4.97
2023-04-21T05:45:53.427Z,4.77
2023-04-21T05:48:20.173Z,4.57
2023-04-21T05:50:46.679Z,4.43
2023-04-21T05:53:13.121Z,5.00
2023-04-21T05:55:39.565Z,4.60
2023-04-21T05:58:06.290Z,4.80
2023-04-21T06:00:33.066Z,4.70
2023-04-21T06:02:59.685Z,4.67
2023-04-21T06:05:26.371Z,4.37
2023-04-21T06:07:52.908Z,4.90
2023-04-21T06:10:19.474Z,4.43
2023-04-21T06:12:45.931Z,4.23
2023-04-21T06:15:12.379Z,4.37
2023-04-21T06:17:38.867Z,4.47
2023-04-21T06:20:06.034Z,4.53
2023-04-21T06:22:33.080Z,5.10
2023-04-21T06:25:00.634Z,4.87
2023-04-21T06:27:28.360Z,4.50
2023-04-21T06:29:56.163Z,4.63
2023-04-21T06:32:22.653Z,4.50
2023-04-21T06:34:49.099Z,4.57
2023-04-21T06:37:15.798Z,4.47
2023-04-21T06:39:42.251Z,4.83
2023-04-21T06:42:08.731Z,4.63
2023-04-21T06:44:35.871Z,5.17
2023-04-21T06:47:02.390Z,4.57
2023-04-21T06:49:28.842Z,4.70
2023-04-21T06:51:55.596Z,4.37
2023-04-21T06:54:22.116Z,4.70
2023-04-21T06:56:51.286Z,4.87
2023-04-21T06:59:17.938Z,4.00
2023-04-21T07:01:44.586Z,5.17
2023-04-21T07:04:11.090Z,4.40
2023-04-21T07:06:37.592Z,4.53
2023-04-21T07:09:04.126Z,4.30
2023-04-21T07:11:30.682Z,4.80
2023-04-21T07:13:58.273Z,5.00
2023-04-21T07:16:24.820Z,4.90
2023-04-21T07:18:51.365Z,5.00
2023-04-21T07:21:17.792Z,4.80
2023-04-21T07:23:44.285Z,5.13
2023-04-21T07:26:10.867Z,5.40
2023-04-21T07:28:38.902Z,6.27
2023-04-21T07:31:05.453Z,6.67
2023-04-21T07:33:31.959Z,6.90
2023-04-21T07:35:58.635Z,7.77
2023-04-21T07:38:25.265Z,6.40
2023-04-21T07:40:51.985Z,6.20
2023-04-21T07:43:19.891Z,5.53
2023-04-21T07:45:46.546Z,5.80
2023-04-21T07:48:13.175Z,5.97
2023-04-21T07:50:39.672Z,5.33
2023-04-21T07:53:06.365Z,5.80
2023-04-21T07:55:32.888Z,5.77
2023-04-21T07:57:59.428Z,5.90
2023-04-21T08:00:26.653Z,5.47
2023-04-21T08:02:53.556Z,5.13
2023-04-21T08:05:20.247Z,5.13
2023-04-21T08:07:46.839Z,5.13
2023-04-21T08:10:13.591Z,5.87
2023-04-21T08:12:40.098Z,5.20
2023-04-21T08:15:08.500Z,5.33
2023-04-21T08:17:35.340Z,5.30
2023-04-21T08:20:02.085Z,5.53
2023-04-21T08:22:28.667Z,6.40
2023-04-21T08:24:55.247Z,5.60
2023-04-21T08:27:21.847Z,5.73
2023-04-21T08:29:49.906Z,5.47
2023-04-21T08:32:22.232Z,5.87
2023-04-21T08:34:49.476Z,6.07
2023-04-21T08:37:16.027Z,6.20
2023-04-21T08:39:42.551Z,6.23
2023-04-21T08:42:09.499Z,5.87
2023-04-21T08:44:36.016Z,6.03
2023-04-21T08:47:03.566Z,6.07
2023-04-21T08:49:31.341Z,6.20
2023-04-21T08:52:00.446Z,5.90
2023-04-21T08:54:28.650Z,6.50
2023-04-21T08:57:04.589Z,5.87
2023-04-21T08:59:38.496Z,5.30
2023-04-21T09:02:17.868Z,6.23
2023-04-21T09:04:50.674Z,6.47
2023-04-21T09:07:32.188Z,6.23
2023-04-21T09:10:00.505Z,5.93
2023-04-21T09:12:27.779Z,5.93
2023-04-21T09:14:54.340Z,6.00
2023-04-21T09:17:33.428Z,6.00
2023-04-21T09:20:21.560Z,6.27
2023-04-21T09:22:49.821Z,5.70
2023-04-21T09:25:17.835Z,6.13
2023-04-21T09:27:44.412Z,6.20
2023-04-21T09:30:11.499Z,5.70
2023-04-21T09:32:39.432Z,5.80
2023-04-21T09:35:09.814Z,6.30
2023-04-21T09:37:37.107Z,5.73
2023-04-21T09:40:05.383Z,6.30
2023-04-21T09:42:34.489Z,6.50
2023-04-21T09:45:23.644Z,5.40
2023-04-21T09:47:53.345Z,6.17
2023-04-21T09:50:41.869Z,6.47
2023-04-21T09:53:08.357Z,6.17
2023-04-21T09:55:35.311Z,6.03
2023-04-21T09:58:02.756Z,6.50
2023-04-21T10:00:31.070Z,6.47
2023-04-21T10:02:58.762Z,5.80
2023-04-21T10:05:26.097Z,6.30
2023-04-21T10:07:52.845Z,5.53
2023-04-21T10:10:24.369Z,6.50
2023-04-21T10:12:51.759Z,5.93
2023-04-21T10:15:39.206Z,6.43
2023-04-21T10:18:23.250Z,6.27
2023-04-21T10:21:02.577Z,6.37
2023-04-21T10:23:33.383Z,6.50
2023-04-21T10:26:09.039Z,5.83
2023-04-21T10:28:47.786Z,6.03
2023-04-21T10:31:19.473Z,6.20
2023-04-21T10:34:11.159Z,6.03
2023-04-21T10:36:50.213Z,5.43
2023-04-21T10:39:33.636Z,5.40
2023-04-21T10:42:19.931Z,6.27
2023-04-21T10:44:58.602Z,6.33
2023-04-21T10:47:27.320Z,5.83
2023-04-21T10:49:56.756Z,5.73
2023-04-21T10:52:32.395Z,6.60
2023-04-21T10:54:58.828Z,6.23
2023-04-21T10:57:25.404Z,5.90
2023-04-21T10:59:51.882Z,6.33
2023-04-21T11:02:19.196Z,5.43
2023-04-21T11:04:51.289Z,5.53
2023-04-21T11:07:25.099Z,5.90
2023-04-21T11:10:04.456Z,5.83
2023-04-21T11:12:32.754Z,5.60
2023-04-21T11:14:59.358Z,6.07
2023-04-21T11:17:25.952Z,6.50
2023-04-21T11:19:54.560Z,6.23
2023-04-21T11:22:23.025Z,6.27
2023-04-21T11:24:51.161Z,6.10
2023-04-21T11:27:18.053Z,6.13
2023-04-21T11:29:46.341Z,5.77
2023-04-21T11:32:13.937Z,6.70
2023-04-21T11:34:40.840Z,6.23
2023-04-21T11:37:15.106Z,6.20
2023-04-21T11:39:42.141Z,5.40
2023-04-21T11:42:08.647Z,6.00
2023-04-21T11:44:43.157Z,5.63
2023-04-21T11:47:18.019Z,6.10
2023-04-21T11:49:50.558Z,5.47
2023-04-21T11:52:33.666Z,6.00
2023-04-21T11:55:18.737Z,5.80
2023-04-21T11:57:45.636Z,6.37
2023-04-21T12:00:14.013Z,5.60
2023-04-21T12:02:40.903Z,6.00
2023-04-21T12:05:09.729Z,6.00
2023-04-21T12:07:43.869Z,6.00
2023-04-21T12:10:15.270Z,6.13
2023-04-21T12:12:42.374Z,5.93
2023-04-21T12:15:10.861Z,5.63
2023-04-21T12:17:47.820Z,6.03
2023-04-21T12:20:19.002Z,6.30
2023-04-21T12:22:46.371Z,6.23
2023-04-21T12:25:13.827Z,6.00
2023-04-21T12:27:51.040Z,5.77
2023-04-21T12:30:17.969Z,6.27
2023-04-21T12:32:44.649Z,6.43
2023-04-21T12:35:11.328Z,5.53
2023-04-21T12:37:37.839Z,5.80
2023-04-21T12:40:05.299Z,6.17
2023-04-21T12:42:31.975Z,5.67
2023-04-21T12:44:58.522Z,5.73
2023-04-21T12:47:25.124Z,6.40
2023-04-21T12:49:51.619Z,6.57
2023-04-21T12:52:18.046Z,6.70
2023-04-21T12:54:44.785Z,5.97
2023-04-21T12:57:11.611Z,6.10
2023-04-21T12:59:38.086Z,6.23
2023-04-21T13:02:04.842Z,6.67
2023-04-21T13:04:32.560Z,6.83
2023-04-21T13:06:59.376Z,6.23
2023-04-21T13:09:26.063Z,5.70
2023-04-21T13:11:52.514Z,6.53
2023-04-21T13:14:19.035Z,6.20
2023-04-21T13:16:45.564Z,6.27
2023-04-21T13:19:12.087Z,6.00
2023-04-21T13:21:38.522Z,6.43
2023-04-21T13:24:14.339Z,6.53
2023-04-21T13:26:41.520Z,6.47
2023-04-21T13:29:08.066Z,6.53
2023-04-21T13:31:34.663Z,6.20
2023-04-21T13:34:01.359Z,7.33
2023-04-21T13:36:27.803Z,6.43
2023-04-21T13:38:55.959Z,6.40
2023-04-21T13:41:22.554Z,6.80
2023-04-21T13:43:49.305Z,6.60
2023-04-21T13:46:15.826Z,6.80
2023-04-21T13:48:42.504Z,6.23
2023-04-21T13:51:09.358Z,6.57
2023-04-21T13:53:36.225Z,7.27
2023-04-21T13:56:02.750Z,6.53
2023-04-21T13:58:30.856Z,6.70
2023-04-21T14:00:57.408Z,6.70
2023-04-21T14:03:23.974Z,7.80
2023-04-21T14:05:50.746Z,6.30
2023-04-21T14:08:17.305Z,6.60
2023-04-21T14:10:43.765Z,7.00
2023-04-21T14:13:17.431Z,6.93
2023-04-21T14:15:53.817Z,6.43
2023-04-21T14:18:20.396Z,6.97
2023-04-21T14:20:47.253Z,7.03
2023-04-21T14:23:13.728Z,6.90
2023-04-21T14:25:40.348Z,6.47
2023-04-21T14:28:08.380Z,6.53
2023-04-21T14:30:36.455Z,6.90
2023-04-21T14:33:03.849Z,5.97
2023-04-21T14:35:30.380Z,5.87
2023-04-21T14:38:00.022Z,6.77
2023-04-21T14:40:26.510Z,6.40
2023-04-21T14:42:53.053Z,6.33
2023-04-21T14:45:19.598Z,6.60
2023-04-21T14:47:46.123Z,7.63
2023-04-21T14:50:12.627Z,6.83
2023-04-21T14:52:39.812Z,7.03
2023-04-21T14:55:06.771Z,7.43
2023-04-21T14:57:33.252Z,7.20
2023-04-21T15:00:00.345Z,6.57
2023-04-21T15:02:27.161Z,7.10
2023-04-21T15:04:53.911Z,6.57
2023-04-21T15:07:24.280Z,7.20
2023-04-21T15:09:51.473Z,7.40
2023-04-21T15:12:17.994Z,6.70
2023-04-21T15:14:44.477Z,6.90
2023-04-21T15:17:11.084Z,6.77
2023-04-21T15:19:37.828Z,6.90
2023-04-21T15:22:05.013Z,6.60
2023-04-21T15:24:31.633Z,6.67
2023-04-21T15:26:58.093Z,6.47
2023-04-21T15:29:24.611Z,7.40
2023-04-21T15:31:51.126Z,7.40
2023-04-21T15:34:17.644Z,6.60
2023-04-21T15:36:44.076Z,6.60
2023-04-21T15:39:14.017Z,6.93
2023-04-21T15:41:40.936Z,6.80
2023-04-21T15:44:07.504Z,6.20
2023-04-21T15:46:36.907Z,7.10
2023-04-21T15:49:03.535Z,7.07
2023-04-21T15:51:30.075Z,6.17
2023-04-21T15:53:56.578Z,7.33
2023-04-21T15:56:23.042Z,6.70
2023-04-21T15:58:49.504Z,7.40
2023-04-21T16:01:16.359Z,6.37
2023-04-21T16:03:43.197Z,6.40
2023-04-21T16:06:10.491Z,6.73
2023-04-21T16:08:37.218Z,7.43
2023-04-21T16:11:03.726Z,7.50
2023-04-21T16:13:30.254Z,7.23
2023-04-21T16:15:56.866Z,7.13
2023-04-21T16:18:23.586Z,6.50
2023-04-21T16:20:50.209Z,8.73
2023-04-21T16:23:16.683Z,6.83
2023-04-21T16:25:43.538Z,7.87
2023-04-21T16:28:11.539Z,7.60
2023-04-21T16:30:43.950Z,7.77
2023-04-21T16:33:11.356Z,8.50
2023-04-21T16:35:39.029Z,7.03
2023-04-21T16:38:06.151Z,6.77
2023-04-21T16:40:32.747Z,7.50
2023-04-21T16:42:59.186Z,6.50
2023-04-21T16:45:25.765Z,7.47
2023-04-21T16:47:52.426Z,7.50
2023-04-21T16:50:19.325Z,7.27
2023-04-21T16:52:45.977Z,6.87
2023-04-21T16:55:12.495Z,6.77
2023-04-21T16:57:39.075Z,6.90
2023-04-21T17:00:07.225Z,6.87
2023-04-21T17:02:34.323Z,6.77
2023-04-21T17:05:01.105Z,6.97
2023-04-21T17:07:27.962Z,6.70
2023-04-21T17:09:54.616Z,6.53
2023-04-21T17:12:21.530Z,7.00
2023-04-21T17:14:48.690Z,6.60
2023-04-21T17:17:15.245Z,7.30
2023-04-21T17:19:41.733Z,7.33
2023-04-21T17:22:08.176Z,7.27
2023-04-21T17:24:48.972Z,6.73
2023-04-21T17:27:17.930Z,6.93
2023-04-21T17:29:44.414Z,7.00
2023-04-21T17:32:10.936Z,6.80
2023-04-21T17:34:37.708Z,7.20
2023-04-21T17:37:06.007Z,7.53
2023-04-21T17:39:32.844Z,7.70
2023-04-21T17:41:59.369Z,7.80
2023-04-21T17:44:25.943Z,9.17
2023-04-21T17:46:52.408Z,8.40
2023-04-21T17:49:19.380Z,6.77
2023-04-21T17:51:46.054Z,7.03
2023-04-21T17:54:12.592Z,6.93
2023-04-21T17:56:40.639Z,7.00
2023-04-21T17:59:07.388Z,8.13
2023-04-21T18:01:34.053Z,7.73
2023-04-21T18:04:01.558Z,7.40
2023-04-21T18:06:28.665Z,7.70
2023-04-21T18:08:55.944Z,7.43
2023-04-21T18:11:22.708Z,7.13
2023-04-21T18:13:49.201Z,6.80
2023-04-21T18:16:15.846Z,6.53
2023-04-21T18:18:42.355Z,6.50
2023-04-21T18:21:08.805Z,6.90
2023-04-21T18:23:35.381Z,6.40
2023-04-21T18:26:02.079Z,6.67
2023-04-21T18:28:29.549Z,6.97
2023-04-21T18:30:56.224Z,6.47
2023-04-21T18:33:23.078Z,6.63
2023-04-21T18:35:49.695Z,6.23
2023-04-21T18:38:16.220Z,6.33
2023-04-21T18:40:42.743Z,6.17
2023-04-21T18:43:10.574Z,5.90
2023-04-21T18:45:37.113Z,5.83
2023-04-21T18:48:03.672Z,5.67
2023-04-21T18:50:32.345Z,6.00
2023-04-21T18:52:58.811Z,5.97
2023-04-21T18:55:25.384Z,6.00
2023-04-21T18:57:51.897Z,5.83
2023-04-21T19:00:18.526Z,5.63
2023-04-21T19:02:48.642Z,5.97
2023-04-21T19:05:15.589Z,5.87
2023-04-21T19:07:42.203Z,4.80
2023-04-21T19:10:10.399Z,5.00
2023-04-21T19:12:37.156Z,5.10
2023-04-21T19:15:04.177Z,5.40
2023-04-21T19:17:30.690Z,5.33
2023-04-21T19:19:57.197Z,5.43
2023-04-21T19:22:23.682Z,5.33
2023-04-21T19:24:51.121Z,4.77
2023-04-21T19:27:17.569Z,5.23
2023-04-21T19:29:44.031Z,5.77
2023-04-21T19:32:10.566Z,4.80
2023-04-21T19:34:37.380Z,4.80
2023-04-21T19:37:04.194Z,5.07
2023-04-21T19:39:30.685Z,5.40
2023-04-21T19:41:57.917Z,5.00
2023-04-21T19:44:24.399Z,4.40
2023-04-21T19:46:51.174Z,4.40
2023-04-21T19:49:17.760Z,4.93
2023-04-21T19:51:44.286Z,4.73
2023-04-21T19:54:12.327Z,4.30
2023-04-21T19:56:39.780Z,4.73
2023-04-21T19:59:06.628Z,4.73
2023-04-21T20:01:33.945Z,4.77
2023-04-21T20:04:00.821Z,4.17
2023-04-21T20:06:28.562Z,3.73
2023-04-21T20:08:55.865Z,6.27
2023-04-21T20:11:23.208Z,4.60
2023-04-21T20:13:49.980Z,3.83
2023-04-21T20:16:18.209Z,5.10
2023-04-21T20:18:44.851Z,4.53
2023-04-21T20:21:12.596Z,4.00
2023-04-21T20:23:39.152Z,4.30
2023-04-21T20:26:05.755Z,4.00
2023-04-21T20:28:33.521Z,4.60
2023-04-21T20:31:00.916Z,4.07
2023-04-21T20:33:28.143Z,3.93
2023-04-21T20:35:55.350Z,4.13
2023-04-21T20:38:24.127Z,3.90
2023-04-21T20:40:52.353Z,4.30
2023-04-21T20:43:18.923Z,4.73
2023-04-21T20:45:47.187Z,4.73
2023-04-21T20:48:13.646Z,3.87
2023-04-21T20:50:40.116Z,4.70
2023-04-21T20:53:08.475Z,4.93
2023-04-21T20:55:35.562Z,5.23
2023-04-21T20:58:02.954Z,3.27
2023-04-21T21:00:32.959Z,3.67
2023-04-21T21:02:59.976Z,3.40
2023-04-21T21:05:33.334Z,3.87
2023-04-21T21:07:59.887Z,3.40
2023-04-21T21:10:26.487Z,3.57
2023-04-21T21:12:52.949Z,3.07
2023-04-21T21:15:19.537Z,3.60
2023-04-21T21:17:46.296Z,3.10
2023-04-21T21:20:12.877Z,2.97
2023-04-21T21:22:39.379Z,3.40
2023-04-21T21:25:06.151Z,3.03
2023-04-21T21:27:33.103Z,3.40
2023-04-21T21:29:59.562Z,3.30
2023-04-21T21:32:26.064Z,2.73
2023-04-21T21:34:52.561Z,3.10
2023-04-21T21:37:19.279Z,2.83
2023-04-21T21:39:45.863Z,3.03
2023-04-21T21:42:12.388Z,2.90
2023-04-21T21:44:38.852Z,3.03
2023-04-21T21:47:05.726Z,3.07
2023-04-21T21:49:32.577Z,2.80
2023-04-21T21:51:59.018Z,2.73
2023-04-21T21:54:25.534Z,2.90
2023-04-21T21:56:51.998Z,3.33
2023-04-21T21:59:18.541Z,2.90
2023-04-21T22:01:45.143Z,2.57
2023-04-21T22:04:11.784Z,2.50
2023-04-21T22:06:38.492Z,2.80
2023-04-21T22:09:05.341Z,3.20
2023-04-21T22:11:32.399Z,2.50
2023-04-21T22:14:07.757Z,2.50
2023-04-21T22:16:42.963Z,2.50
2023-04-21T22:19:10.910Z,2.40
2023-04-21T22:21:37.475Z,2.83
2023-04-21T22:24:04.622Z,2.53
2023-04-21T22:26:31.527Z,2.53
2023-04-21T22:28:58.008Z,2.60
2023-04-21T22:31:24.522Z,2.57
2023-04-21T22:33:50.994Z,2.80
2023-04-21T22:36:17.517Z,3.00
2023-04-21T22:38:45.669Z,2.93
2023-04-21T22:41:13.338Z,2.40
2023-04-21T22:43:39.893Z,2.80
2023-04-21T22:46:06.936Z,2.50
2023-04-21T22:48:36.228Z,3.00
2023-04-21T22:51:02.891Z,2.70
2023-04-21T22:53:29.361Z,2.77
2023-04-21T22:55:55.891Z,2.67
2023-04-21T22:58:22.420Z,2.80
2023-04-21T23:00:48.960Z,2.97
2023-04-21T23:03:16.670Z,3.00
2023-04-21T23:05:43.332Z,2.80
2023-04-21T23:08:09.814Z,3.13
2023-04-21T23:10:36.337Z,3.40
2023-04-21T23:13:03.296Z,2.90
2023-04-21T23:15:29.948Z,3.17
2023-04-21T23:17:56.466Z,2.90
2023-04-21T23:20:23.265Z,3.20
2023-04-21T23:22:49.784Z,3.10
2023-04-21T23:25:16.906Z,2.80
2023-04-21T23:27:44.330Z,2.90
2023-04-21T23:30:11.596Z,2.93
2023-04-21T23:32:38.845Z,3.17
2023-04-21T23:35:06.001Z,3.10
2023-04-21T23:37:32.550Z,2.90
2023-04-21T23:39:59.208Z,3.10
2023-04-21T23:42:25.728Z,3.00
2023-04-21T23:44:52.217Z,3.00
2023-04-21T23:47:18.755Z,3.27
2023-04-21T23:49:45.351Z,2.90
2023-04-21T23:52:12.177Z,3.30
2023-04-21T23:54:38.644Z,3.43
2023-04-21T23:57:05.767Z,3.43
2023-04-21T23:59:32.238Z,3.07
